Time;durP1;ratioP1;P1;durP2;ratioP2;P2;SDS_P1;SDS_P2;PMS_P1;PMS_P2;Temp;Humidity;BMP_temperature;BMP_pressure;BME280_temperature;BME280_humidity;BME280_pressure;Samples;Min_cycle;Max_cycle;Signal;HPM_P1;HPM_P2
2023/07/11 00:00:47;;;;;;;;;;;;;;;24.86;51.11;99754.72;2493475;27;19937;-72
2023/07/11 00:00:57;;;;;;;;;;;;;;;24.86;51.22;99750.19;353472;27;1460;-72
2023/07/11 00:01:09;;;;;;;;;;;;;;;24.86;51.34;99750.19;351748;28;808;-72
2023/07/11 00:01:19;;;;;;;;;;;;;;;24.84;51.25;99748.66;351628;28;667;-72
2023/07/11 00:01:29;;;;;;;;;;;;;;;24.85;51.08;99748.53;351551;28;752;-72
2023/07/11 00:01:39;;;;;;;;;;;;;;;24.84;51.02;99752.19;350185;28;809;-72
2023/07/11 00:01:50;;;;;;;;;;;;;;;24.83;51.13;99753.19;348743;28;1332;-72
2023/07/11 00:02:00;;;;;;;;;;;;;;;24.84;50.92;99751.34;349951;28;1575;-72
2023/07/11 00:02:10;;;;;;;;;;;;;;;24.80;51.19;99750.81;350072;28;872;-72
2023/07/11 00:02:20;;;;;;;;;;;;;;;24.80;51.12;99755.31;350068;28;1298;-72
2023/07/11 00:02:31;;;;;;;;;;;;;;;24.78;51.07;99747.44;350019;28;780;-72
2023/07/11 00:02:42;;;;;;;;;;;;;;;24.77;51.10;99745.75;350111;28;911;-72
2023/07/11 00:02:52;;;;;;;;;;;;;;;24.79;51.25;99749.13;348753;28;785;-72
2023/07/11 00:03:02;;;;;;;;;;;;;;;24.79;51.22;99749.13;348869;28;714;-72
2023/07/11 00:03:13;;;;;;;;;;;;;;;24.80;50.98;99747.28;347410;28;924;-72
2023/07/11 00:03:23;;;;;;;;;;;;;;;24.79;51.33;99748.28;347394;28;824;-72
2023/07/11 00:03:34;;;;;;;;;;;;;;;24.80;50.95;99750.81;347398;28;1126;-72
2023/07/11 00:03:44;;;;;;;;;;;;;;;24.81;51.36;99752.47;348291;28;1115;-72
2023/07/11 00:03:54;;;;;;;;;;;;;;;24.80;51.40;99752.63;347466;28;804;-72
2023/07/11 00:04:04;;;;;;;;;;;;;;;24.80;51.31;99750.81;347370;28;1444;-72
2023/07/11 00:04:15;;;;;;;;;;;;;;;24.79;51.27;99749.13;347379;28;1193;-72
2023/07/11 00:04:25;;;;;;;;;;;;;;;24.79;51.19;99749.13;345966;28;887;-72
2023/07/11 00:04:35;;;;;;;;;;;;;;;24.80;51.51;99750.81;344589;28;1681;-72
2023/07/11 00:04:45;;;;;;;;;;;;;;;24.80;51.33;99748.13;347212;28;911;-72
2023/07/11 00:04:57;;;;;;;;;;;;;;;24.79;51.41;99749.13;347399;28;768;-72
2023/07/11 00:05:07;;;;;;;;;;;;;;;24.79;51.15;99746.44;347318;28;1162;-72
2023/07/11 00:05:18;;;;;;;;;;;;;;;24.79;51.27;99751.78;346939;28;1378;-72
2023/07/11 00:05:28;;;;;;;;;;;;;;;24.80;51.50;99750.81;347334;28;1344;-72
2023/07/11 00:05:39;;;;;;;;;;;;;;;24.79;51.30;99738.41;347377;28;1294;-72
2023/07/11 00:06:02;;;;;;;;;;;;;;;24.79;51.38;99750.94;347374;28;1405;-72
2023/07/11 00:06:14;;;;;;;;;;;;;;;24.78;51.58;99750.09;347398;28;1251;-72
2023/07/11 00:06:25;;;;;;;;;;;;;;;24.78;51.23;99747.44;347542;28;1081;-72
2023/07/11 00:06:35;;;;;;;;;;;;;;;24.78;51.43;99744.75;348716;28;1562;-72
2023/07/11 00:06:45;;;;;;;;;;;;;;;24.78;51.17;99747.44;351247;28;1075;-72
2023/07/11 00:06:55;;;;;;;;;;;;;;;24.78;51.44;99747.44;352116;27;1185;-72
2023/07/11 00:07:06;;;;;;;;;;;;;;;24.78;51.29;99739.41;351357;28;1222;-72
2023/07/11 00:07:16;;;;;;;;;;;;;;;24.77;51.51;99740.38;350030;28;838;-72
2023/07/11 00:07:26;;;;;;;;;;;;;;;24.78;51.70;99746.59;347450;28;1421;-72
2023/07/11 00:07:36;;;;;;;;;;;;;;;24.78;51.41;99746.59;345984;28;954;-72
2023/07/11 00:07:47;;;;;;;;;;;;;;;24.78;51.95;99747.44;346133;28;808;-72
2023/07/11 00:07:57;;;;;;;;;;;;;;;24.78;51.47;99744.75;345979;28;1363;-72
2023/07/11 00:08:07;;;;;;;;;;;;;;;24.78;51.50;99744.75;346072;28;850;-72
2023/07/11 00:08:17;;;;;;;;;;;;;;;24.79;51.66;99749.13;346104;28;967;-72
2023/07/11 00:08:28;;;;;;;;;;;;;;;24.77;51.65;99740.38;345908;28;962;-72
2023/07/11 00:08:38;;;;;;;;;;;;;;;24.77;51.56;99744.91;345051;28;1386;-72
2023/07/11 00:08:49;;;;;;;;;;;;;;;24.77;51.58;99744.91;346053;28;1371;-72
2023/07/11 00:08:59;;;;;;;;;;;;;;;24.75;51.75;99747.72;345905;28;1324;-72
2023/07/11 00:09:09;;;;;;;;;;;;;;;24.76;51.65;99740.53;342283;28;1299;-72
2023/07/11 00:09:21;;;;;;;;;;;;;;;24.76;51.63;99741.38;336816;29;3461;-72
2023/07/11 00:09:31;;;;;;;;;;;;;;;24.76;51.69;99745.91;333437;29;4808;-72
2023/07/11 00:09:44;;;;;;;;;;;;;;;24.75;51.86;99741.53;334883;29;4992;-72
2023/07/11 00:09:54;;;;;;;;;;;;;;;24.74;51.52;99751.41;337194;29;779;-72
2023/07/11 00:10:05;;;;;;;;;;;;;;;24.74;51.71;99743.38;337858;29;3163;-72
2023/07/11 00:10:17;;;;;;;;;;;;;;;24.75;51.89;99745.06;337081;29;964;-72
2023/07/11 00:10:27;;;;;;;;;;;;;;;24.75;51.74;99752.25;332603;29;1625;-72
2023/07/11 00:10:40;;;;;;;;;;;;;;;24.74;51.63;99746.03;331256;29;1659;-72
2023/07/11 00:10:50;;;;;;;;;;;;;;;24.74;51.70;99748.72;329458;29;1564;-72
2023/07/11 00:11:01;;;;;;;;;;;;;;;24.71;51.84;99751.69;333781;29;1654;-72
2023/07/11 00:11:11;;;;;;;;;;;;;;;24.70;51.83;99744.66;333843;29;1749;-72
2023/07/11 00:11:21;;;;;;;;;;;;;;;24.71;51.92;99743.66;330323;29;1256;-72
2023/07/11 00:11:31;;;;;;;;;;;;;;;24.72;51.90;99742.66;328166;30;803;-72
2023/07/11 00:11:42;;;;;;;;;;;;;;;24.71;51.88;99741.00;330424;29;1904;-72
2023/07/11 00:11:52;;;;;;;;;;;;;;;24.71;52.12;99749.03;331728;29;1565;-72
2023/07/11 00:12:02;;;;;;;;;;;;;;;24.71;51.78;99743.66;331656;29;1398;-72
2023/07/11 00:12:13;;;;;;;;;;;;;;;24.69;51.83;99748.34;330344;29;1527;-72
2023/07/11 00:12:28;;;;;;;;;;;;;;;24.69;52.08;99748.34;330243;29;1071;-72
2023/07/11 00:12:39;;;;;;;;;;;;;;;24.69;51.90;99751.03;327592;30;1720;-72
2023/07/11 00:12:49;;;;;;;;;;;;;;;24.68;52.12;99752.03;327921;30;1114;-72
2023/07/11 00:12:59;;;;;;;;;;;;;;;24.68;52.02;99752.03;321716;30;2269;-72
2023/07/11 00:13:11;;;;;;;;;;;;;;;24.67;52.06;99745.00;318732;30;2292;-72
2023/07/11 00:13:21;;;;;;;;;;;;;;;24.68;52.12;99754.69;315849;30;2431;-72
2023/07/11 00:13:32;;;;;;;;;;;;;;;24.70;52.09;99752.69;319687;30;1039;-72
2023/07/11 00:13:43;;;;;;;;;;;;;;;24.71;51.89;99745.50;321595;30;2345;-72
2023/07/11 00:13:55;;;;;;;;;;;;;;;24.70;52.22;99755.38;320537;30;2450;-72
2023/07/11 00:14:05;;;;;;;;;;;;;;;24.71;51.99;99757.06;316187;31;1275;-72
2023/07/11 00:14:15;;;;;;;;;;;;;;;24.71;52.19;99750.84;314942;31;2033;-72
2023/07/11 00:14:26;;;;;;;;;;;;;;;24.69;52.20;99751.03;315834;31;1504;-72
2023/07/11 00:14:36;;;;;;;;;;;;;;;24.69;52.06;99751.03;317125;31;1226;-72
2023/07/11 00:14:46;;;;;;;;;;;;;;;24.70;52.10;99755.38;318396;31;1244;-72
2023/07/11 00:14:57;;;;;;;;;;;;;;;24.70;52.29;99754.53;317249;31;2511;-72
2023/07/11 00:15:09;;;;;;;;;;;;;;;24.70;52.05;99752.69;314489;31;2928;-72
2023/07/11 00:15:19;;;;;;;;;;;;;;;24.70;52.23;99754.53;313851;31;1368;-72
2023/07/11 00:15:30;;;;;;;;;;;;;;;24.68;52.18;99754.69;317445;30;3041;-72
2023/07/11 00:15:40;;;;;;;;;;;;;;;24.68;52.03;99746.66;316180;31;3846;-72
2023/07/11 00:15:56;;;;;;;;;;;;;;;24.68;52.14;99751.19;314976;31;1233;-72
2023/07/11 00:16:10;;;;;;;;;;;;;;;24.67;52.18;99750.34;313489;31;3207;-72
2023/07/11 00:16:20;;;;;;;;;;;;;;;24.69;52.21;99753.72;316279;31;850;-72
2023/07/11 00:16:30;;;;;;;;;;;;;;;24.68;51.99;99749.34;313423;31;2426;-72
2023/07/11 00:16:40;;;;;;;;;;;;;;;24.69;52.37;99753.72;313156;31;2169;-72
2023/07/11 00:16:52;;;;;;;;;;;;;;;24.69;52.56;99753.72;313060;31;921;-72
2023/07/11 00:17:03;;;;;;;;;;;;;;;24.70;52.38;99743.81;307343;32;1302;-72
2023/07/11 00:17:13;;;;;;;;;;;;;;;24.71;52.41;99753.53;305634;31;3807;-71
2023/07/11 00:17:23;;;;;;;;;;;;;;;24.70;52.42;99747.34;305944;31;4711;-70
2023/07/11 00:17:33;;;;;;;;;;;;;;;24.68;52.71;99746.66;307364;32;898;-71
2023/07/11 00:17:44;;;;;;;;;;;;;;;24.67;52.60;99749.50;304362;32;4186;-71
2023/07/11 00:17:55;;;;;;;;;;;;;;;24.67;52.42;99750.34;303998;32;4771;-71
2023/07/11 00:18:05;;;;;;;;;;;;;;;24.67;52.50;99753.03;307322;32;791;-71
2023/07/11 00:18:15;;;;;;;;;;;;;;;24.67;52.79;99750.34;306575;31;4622;-71
2023/07/11 00:18:26;;;;;;;;;;;;;;;24.66;52.52;99755.84;306583;32;3718;-71
2023/07/11 00:18:36;;;;;;;;;;;;;;;24.65;52.49;99757.69;303977;32;3689;-71
2023/07/11 00:18:46;;;;;;;;;;;;;;;24.66;52.57;99754.00;297877;32;3236;-71
2023/07/11 00:18:56;;;;;;;;;;;;;;;24.65;52.82;99746.97;297747;32;4982;-71
2023/07/11 00:19:07;;;;;;;;;;;;;;;24.64;52.73;99753.31;298156;32;3923;-71
2023/07/11 00:19:19;;;;;;;;;;;;;;;24.64;52.41;99753.31;299837;32;5078;-71
2023/07/11 00:19:31;;;;;;;;;;;;;;;24.63;52.94;99751.63;294203;33;5648;-71
2023/07/11 00:19:48;;;;;;;;;;;;;;;24.63;52.61;99745.44;294679;33;7219;-71
2023/07/11 00:19:58;;;;;;;;;;;;;;;24.65;52.45;99756.84;294172;33;6138;-71
2023/07/11 00:20:08;;;;;;;;;;;;;;;24.65;52.59;99746.13;290521;33;6183;-71
2023/07/11 00:20:19;;;;;;;;;;;;;;;24.65;52.64;99755.00;288935;34;1590;-71
2023/07/11 00:20:29;;;;;;;;;;;;;;;24.64;52.54;99745.28;289598;33;6452;-71
2023/07/11 00:20:39;;;;;;;;;;;;;;;24.65;52.25;99755.00;290213;33;4588;-71
2023/07/11 00:20:50;;;;;;;;;;;;;;;24.64;52.14;99755.16;291907;33;1109;-71
2023/07/11 00:21:00;;;;;;;;;;;;;;;24.65;52.23;99763.03;287344;34;3903;-71
2023/07/11 00:21:10;;;;;;;;;;;;;;;24.64;52.13;99756.00;287022;34;5072;-71
2023/07/11 00:21:20;;;;;;;;;;;;;;;24.64;52.17;99755.16;290037;34;1236;-71
2023/07/11 00:21:31;;;;;;;;;;;;;;;24.64;51.88;99749.78;284262;34;5375;-71
2023/07/11 00:21:41;;;;;;;;;;;;;;;24.64;52.04;99753.31;284293;34;7009;-71
2023/07/11 00:21:51;;;;;;;;;;;;;;;24.65;52.22;99762.19;284538;34;849;-71
2023/07/11 00:22:01;;;;;;;;;;;;;;;24.64;51.86;99747.97;279811;34;9525;-71
2023/07/11 00:22:11;;;;;;;;;;;;;;;24.64;51.79;99758.66;279191;34;9323;-71
2023/07/11 00:22:22;;;;;;;;;;;;;;;24.65;52.03;99754.16;277567;35;8464;-71
2023/07/11 00:22:32;;;;;;;;;;;;;;;24.65;51.83;99757.69;280870;35;1252;-71
2023/07/11 00:24:43;;;;;;;;;;;;;;;24.57;51.53;99754.91;2491659;27;20651;-71
2023/07/11 00:24:53;;;;;;;;;;;;;;;24.57;51.54;99749.53;354601;27;822;-71
2023/07/11 00:25:04;;;;;;;;;;;;;;;24.58;51.64;99751.22;354579;27;827;-71
2023/07/11 00:25:14;;;;;;;;;;;;;;;24.59;51.68;99744.88;352921;27;1128;-71
2023/07/11 00:25:25;;;;;;;;;;;;;;;24.60;51.50;99749.25;351561;28;1257;-72
2023/07/11 00:25:35;;;;;;;;;;;;;;;24.59;51.52;99750.25;350177;28;1426;-72
2023/07/11 00:25:45;;;;;;;;;;;;;;;24.58;51.27;99753.91;348834;28;1400;-72
2023/07/11 00:25:56;;;;;;;;;;;;;;;24.57;51.26;99744.19;348911;28;902;-72
2023/07/11 00:26:06;;;;;;;;;;;;;;;24.57;51.70;99749.53;347282;28;1388;-72
2023/07/11 00:26:16;;;;;;;;;;;;;;;24.55;51.21;99751.53;350235;28;1203;-72
2023/07/11 00:26:26;;;;;;;;;;;;;;;24.53;51.63;99749.00;351542;28;792;-72
2023/07/11 00:26:36;;;;;;;;;;;;;;;24.54;51.65;99744.47;351487;28;1381;-72
2023/07/11 00:26:47;;;;;;;;;;;;;;;24.54;51.59;99744.47;351555;28;1197;-72
2023/07/11 00:26:57;;;;;;;;;;;;;;;24.54;51.37;99755.19;352842;28;1333;-72
2023/07/11 00:27:07;;;;;;;;;;;;;;;24.54;51.43;99744.47;351354;28;1282;-72
2023/07/11 00:27:18;;;;;;;;;;;;;;;24.56;51.43;99753.22;351562;28;840;-72
2023/07/11 00:27:28;;;;;;;;;;;;;;;24.57;51.46;99749.53;350303;28;764;-72
2023/07/11 00:27:38;;;;;;;;;;;;;;;24.57;51.56;99749.53;350209;28;796;-72
2023/07/11 00:27:48;;;;;;;;;;;;;;;24.56;51.59;99747.84;350041;28;1013;-72
2023/07/11 00:27:59;;;;;;;;;;;;;;;24.57;51.56;99746.88;348755;28;1375;-72
2023/07/11 00:28:09;;;;;;;;;;;;;;;24.57;51.36;99748.69;348271;28;1238;-72
2023/07/11 00:28:19;;;;;;;;;;;;;;;24.56;51.63;99749.69;348548;28;1363;-72
2023/07/11 00:28:30;;;;;;;;;;;;;;;24.54;51.29;99744.47;349163;28;3332;-72
2023/07/11 00:28:40;;;;;;;;;;;;;;;24.53;51.42;99746.31;347065;28;5141;-71
2023/07/11 00:28:50;;;;;;;;;;;;;;;24.53;51.26;99743.63;347631;28;4596;-72
2023/07/11 00:29:01;;;;;;;;;;;;;;;24.54;51.26;99744.47;347269;28;4910;-72
2023/07/11 00:29:14;;;;;;;;;;;;;;;24.56;51.14;99739.81;348356;28;3174;-72
2023/07/11 00:29:25;;;;;;;;;;;;;;;24.55;51.08;99746.16;348759;28;1202;-72
2023/07/11 00:29:35;;;;;;;;;;;;;;;24.56;51.10;99744.34;348613;28;1436;-72
2023/07/11 00:29:45;;;;;;;;;;;;;;;24.56;51.23;99747.84;348838;28;776;-72
2023/07/11 00:29:55;;;;;;;;;;;;;;;24.56;51.23;99753.22;346196;28;1486;-72
2023/07/11 00:30:06;;;;;;;;;;;;;;;24.56;51.19;99747.84;348942;28;1366;-72
2023/07/11 00:30:16;;;;;;;;;;;;;;;24.56;51.10;99742.50;347306;28;918;-72
2023/07/11 00:30:26;;;;;;;;;;;;;;;24.56;51.10;99750.53;348755;28;1383;-72
2023/07/11 00:30:40;;;;;;;;;;;;;;;24.57;51.02;99743.34;349270;28;1129;-71
2023/07/11 00:30:50;;;;;;;;;;;;;;;24.57;50.91;99746.88;347334;28;829;-71
2023/07/11 00:31:00;;;;;;;;;;;;;;;24.56;51.14;99742.50;345921;28;1189;-72
2023/07/11 00:31:10;;;;;;;;;;;;;;;24.57;50.94;99752.22;347093;28;1430;-71
2023/07/11 00:31:21;;;;;;;;;;;;;;;24.58;51.51;99745.03;346501;28;1631;-71
2023/07/11 00:31:31;;;;;;;;;;;;;;;24.57;51.28;99746.88;344644;28;1216;-71
2023/07/11 00:31:41;;;;;;;;;;;;;;;24.56;51.07;99747.84;343294;28;1333;-72
2023/07/11 00:31:51;;;;;;;;;;;;;;;24.55;50.94;99740.81;343460;28;852;-72
2023/07/11 00:32:02;;;;;;;;;;;;;;;24.56;51.14;99742.50;343496;28;1031;-72
2023/07/11 00:32:12;;;;;;;;;;;;;;;24.56;50.76;99747.84;343381;28;840;-72
2023/07/11 00:32:23;;;;;;;;;;;;;;;24.56;50.64;99742.50;343924;28;860;-72
2023/07/11 00:32:33;;;;;;;;;;;;;;;24.57;51.02;99746.03;345897;28;1391;-71
2023/07/11 00:32:43;;;;;;;;;;;;;;;24.56;50.94;99745.19;345101;28;1065;-71
2023/07/11 00:32:54;;;;;;;;;;;;;;;24.55;50.89;99740.81;343436;28;1364;-71
2023/07/11 00:33:04;;;;;;;;;;;;;;;24.55;50.92;99751.53;341538;28;1236;-71
2023/07/11 00:33:14;;;;;;;;;;;;;;;24.56;50.67;99747.84;337955;29;1136;-71
2023/07/11 00:33:24;;;;;;;;;;;;;;;24.56;50.97;99742.50;339511;29;1330;-72
2023/07/11 00:33:35;;;;;;;;;;;;;;;24.54;51.18;99745.31;339703;28;1918;-72
2023/07/11 00:33:45;;;;;;;;;;;;;;;24.55;50.89;99751.53;341862;28;1160;-72
2023/07/11 00:33:55;;;;;;;;;;;;;;;24.54;50.91;99745.31;340770;29;864;-72
2023/07/11 00:34:05;;;;;;;;;;;;;;;24.53;50.95;99742.78;340585;29;980;-72
2023/07/11 00:34:16;;;;;;;;;;;;;;;24.53;50.76;99750.81;339341;29;833;-72
2023/07/11 00:34:26;;;;;;;;;;;;;;;24.53;50.90;99749.00;340432;29;1438;-72
2023/07/11 00:34:36;;;;;;;;;;;;;;;24.54;51.09;99744.47;337671;29;1728;-71
2023/07/11 00:34:46;;;;;;;;;;;;;;;24.55;50.99;99740.81;334045;29;1215;-71
2023/07/11 00:34:57;;;;;;;;;;;;;;;24.56;50.94;99745.19;337647;28;1615;-71
2023/07/11 00:35:07;;;;;;;;;;;;;;;24.54;50.72;99748.00;336409;29;1800;-71
2023/07/11 00:35:19;;;;;;;;;;;;;;;24.54;50.99;99744.47;333602;29;1877;-71
2023/07/11 00:35:30;;;;;;;;;;;;;;;24.55;50.91;99746.16;332140;29;1564;-71
2023/07/11 00:35:41;;;;;;;;;;;;;;;24.55;50.76;99746.16;329364;29;1671;-71
2023/07/11 00:35:51;;;;;;;;;;;;;;;24.54;51.07;99739.97;329504;29;1396;-71
2023/07/11 00:36:02;;;;;;;;;;;;;;;24.53;51.06;99742.78;329326;30;781;-72
2023/07/11 00:36:12;;;;;;;;;;;;;;;24.52;50.92;99746.47;330395;29;1026;-72
2023/07/11 00:36:22;;;;;;;;;;;;;;;24.49;50.97;99738.72;331704;29;1730;-72
2023/07/11 00:36:32;;;;;;;;;;;;;;;24.50;51.07;99740.41;331510;29;1904;-72
2023/07/11 00:36:43;;;;;;;;;;;;;;;24.49;51.17;99744.94;332892;29;889;-71
2023/07/11 00:36:53;;;;;;;;;;;;;;;24.49;51.13;99744.09;330665;29;2250;-71
2023/07/11 00:37:03;;;;;;;;;;;;;;;24.49;51.28;99744.94;331203;29;2001;-71
2023/07/11 00:37:14;;;;;;;;;;;;;;;24.50;51.06;99743.09;330331;29;1334;-71
2023/07/11 00:37:24;;;;;;;;;;;;;;;24.47;50.86;99738.03;331995;29;2171;-71
2023/07/11 00:37:34;;;;;;;;;;;;;;;24.48;51.38;99739.72;330779;29;2451;-71
2023/07/11 00:37:44;;;;;;;;;;;;;;;24.48;51.25;99745.06;329265;30;728;-72
2023/07/11 00:37:55;;;;;;;;;;;;;;;24.47;51.06;99740.72;326302;30;3585;-72
2023/07/11 00:38:05;;;;;;;;;;;;;;;24.48;50.99;99737.88;324125;30;4314;-72
2023/07/11 00:38:15;;;;;;;;;;;;;;;24.49;51.05;99736.91;324228;30;2893;-72
2023/07/11 00:38:26;;;;;;;;;;;;;;;24.48;51.16;99737.88;327216;30;3112;-72
2023/07/11 00:38:36;;;;;;;;;;;;;;;24.48;51.05;99739.72;327431;30;1726;-72
2023/07/11 00:38:46;;;;;;;;;;;;;;;24.49;51.12;99736.06;325062;30;1323;-72
2023/07/11 00:38:56;;;;;;;;;;;;;;;24.50;51.12;99735.06;322813;30;2308;-72
2023/07/11 00:39:06;;;;;;;;;;;;;;;24.51;51.14;99736.75;319569;30;3276;-73
2023/07/11 00:39:19;;;;;;;;;;;;;;;24.51;50.80;99734.06;317321;31;1262;-72
2023/07/11 00:39:30;;;;;;;;;;;;;;;24.52;51.28;99741.13;315037;31;815;-72
2023/07/11 00:39:40;;;;;;;;;;;;;;;24.50;50.94;99738.59;313190;31;3285;-72
2023/07/11 00:39:50;;;;;;;;;;;;;;;24.50;51.13;99732.38;312414;31;3287;-72
2023/07/11 00:40:00;;;;;;;;;;;;;;;24.50;50.80;99732.38;311726;31;1208;-72
2023/07/11 00:40:11;;;;;;;;;;;;;;;24.49;51.12;99730.69;309882;31;2296;-72
2023/07/11 00:40:21;;;;;;;;;;;;;;;24.49;50.91;99736.06;311408;31;2015;-72
2023/07/11 00:40:32;;;;;;;;;;;;;;;24.49;50.95;99733.38;314040;31;1442;-72
2023/07/11 00:40:42;;;;;;;;;;;;;;;24.50;50.93;99737.75;315834;31;1983;-72
2023/07/11 00:40:52;;;;;;;;;;;;;;;24.50;50.78;99735.06;314781;31;2630;-72
2023/07/11 00:41:05;;;;;;;;;;;;;;;24.50;50.89;99738.59;313081;31;3164;-72
2023/07/11 00:41:16;;;;;;;;;;;;;;;24.50;50.82;99732.38;314004;31;810;-72
2023/07/11 00:41:26;;;;;;;;;;;;;;;24.52;51.18;99725.06;309019;31;4340;-72
2023/07/11 00:41:36;;;;;;;;;;;;;;;24.52;50.94;99725.06;311301;31;4152;-72
2023/07/11 00:41:46;;;;;;;;;;;;;;;24.53;50.85;99732.09;315082;31;796;-72
2023/07/11 00:41:57;;;;;;;;;;;;;;;24.50;50.87;99733.22;313336;31;4398;-72
2023/07/11 00:42:07;;;;;;;;;;;;;;;24.48;51.05;99734.38;311472;31;4157;-72
2023/07/11 00:42:17;;;;;;;;;;;;;;;24.48;50.48;99729.03;307997;31;3478;-71
2023/07/11 00:42:28;;;;;;;;;;;;;;;24.48;50.81;99729.03;306213;32;1454;-71
2023/07/11 00:42:38;;;;;;;;;;;;;;;24.47;50.64;99730.84;308536;31;2763;-71
2023/07/11 00:42:52;;;;;;;;;;;;;;;24.47;50.72;99728.19;308232;31;3163;-71
2023/07/11 00:43:02;;;;;;;;;;;;;;;24.48;50.78;99726.34;305673;31;4232;-71
2023/07/11 00:43:13;;;;;;;;;;;;;;;24.48;50.93;99729.03;305367;32;1008;-71
2023/07/11 00:43:24;;;;;;;;;;;;;;;24.47;50.95;99720.16;302359;32;5698;-71
2023/07/11 00:43:34;;;;;;;;;;;;;;;24.47;50.64;99727.34;300312;32;6781;-71
2023/07/11 00:43:44;;;;;;;;;;;;;;;24.45;50.81;99732.00;301029;32;848;-71
2023/07/11 00:43:54;;;;;;;;;;;;;;;24.43;50.76;99723.25;302221;32;6322;-71
2023/07/11 00:44:08;;;;;;;;;;;;;;;24.45;50.80;99723.97;299352;32;6287;-72
2023/07/11 00:44:19;;;;;;;;;;;;;;;24.43;50.94;99723.25;295880;33;6571;-71
2023/07/11 00:44:46;;;;;;;;;;;;;;;24.43;50.66;99713.41;295976;33;1044;-71
2023/07/11 00:44:58;;;;;;;;;;;;;;;24.43;50.94;99715.25;293919;33;4031;-72
2023/07/11 00:45:26;;;;;;;;;;;;;;;24.46;50.98;99728.31;290779;33;4705;-72
2023/07/11 00:45:49;;;;;;;;;;;;;;;24.46;50.87;99715.78;288697;33;7940;-72
2023/07/11 00:46:15;;;;;;;;;;;;;;;24.45;50.72;99716.78;289057;34;1095;-71
2023/07/11 00:46:25;;;;;;;;;;;;;;;24.47;50.40;99714.78;285023;34;9169;-71
2023/07/11 00:48:24;;;;;;;;;;;;;;;24.50;50.18;99722.53;2492850;27;19937;-71
2023/07/11 00:48:36;;;;;;;;;;;;;;;24.48;50.59;99718.31;356097;27;855;-71
2023/07/11 00:48:53;;;;;;;;;;;;;;;24.50;50.50;99721.69;354454;27;878;-71
2023/07/11 00:49:03;;;;;;;;;;;;;;;24.49;50.73;99718.16;352614;28;1148;-71
2023/07/11 00:49:15;;;;;;;;;;;;;;;24.50;50.07;99719.00;351564;28;768;-71
2023/07/11 00:49:26;;;;;;;;;;;;;;;24.48;50.30;99716.47;350215;28;815;-71
2023/07/11 00:49:37;;;;;;;;;;;;;;;24.47;50.21;99724.66;350242;28;804;-72
2023/07/11 00:49:47;;;;;;;;;;;;;;;24.48;50.44;99726.34;350140;28;762;-72
2023/07/11 00:50:06;;;;;;;;;;;;;;;24.49;50.27;99720.84;348895;28;1477;-71
2023/07/11 00:50:17;;;;;;;;;;;;;;;24.49;50.69;99720.00;346962;28;1185;-71
2023/07/11 00:50:27;;;;;;;;;;;;;;;24.49;50.34;99722.69;350076;28;1572;-71
2023/07/11 00:50:38;;;;;;;;;;;;;;;24.49;50.67;99718.16;349233;28;1365;-71
2023/07/11 00:50:49;;;;;;;;;;;;;;;24.50;50.42;99719.84;350085;28;1058;-71
2023/07/11 00:50:59;;;;;;;;;;;;;;;24.51;50.59;99721.53;350222;28;1231;-71
2023/07/11 00:51:10;;;;;;;;;;;;;;;24.52;50.67;99719.72;350379;28;1009;-71
2023/07/11 00:51:25;;;;;;;;;;;;;;;24.52;50.22;99720.53;348765;28;1343;-73
2023/07/11 00:51:41;;;;;;;;;;;;;;;24.54;50.16;99723.06;348761;28;1254;-71
2023/07/11 00:51:56;;;;;;;;;;;;;;;24.54;50.40;99723.06;351301;28;831;-71
2023/07/11 00:52:06;;;;;;;;;;;;;;;24.55;50.34;99724.75;352498;28;1364;-71
2023/07/11 00:52:16;;;;;;;;;;;;;;;24.57;50.37;99717.44;352669;28;1069;-71
2023/07/11 00:52:28;;;;;;;;;;;;;;;24.56;50.27;99723.78;351528;28;1178;-71
2023/07/11 00:52:38;;;;;;;;;;;;;;;24.56;50.39;99722.94;351507;28;918;-71
2023/07/11 00:52:48;;;;;;;;;;;;;;;24.56;50.40;99714.91;347838;28;1471;-71
2023/07/11 00:52:58;;;;;;;;;;;;;;;24.56;50.38;99721.09;345053;28;1406;-72
2023/07/11 00:53:09;;;;;;;;;;;;;;;24.57;50.23;99720.09;346118;28;872;-71
2023/07/11 00:53:19;;;;;;;;;;;;;;;24.57;50.20;99722.78;346056;28;1356;-71
2023/07/11 00:53:29;;;;;;;;;;;;;;;24.59;50.16;99726.16;345972;28;1312;-71
2023/07/11 00:53:39;;;;;;;;;;;;;;;24.60;50.07;99717.13;346258;28;942;-71
2023/07/11 00:53:50;;;;;;;;;;;;;;;24.59;50.35;99720.78;346019;28;1020;-71
2023/07/11 00:54:00;;;;;;;;;;;;;;;24.59;49.88;99720.78;347313;28;1485;-71
2023/07/11 00:54:10;;;;;;;;;;;;;;;24.60;50.11;99717.13;345826;28;1359;-71
2023/07/11 00:54:21;;;;;;;;;;;;;;;24.60;50.38;99724.31;346854;28;1358;-71
2023/07/11 00:54:32;;;;;;;;;;;;;;;24.60;50.12;99721.63;344427;28;1295;-70
2023/07/11 00:54:43;;;;;;;;;;;;;;;24.59;50.08;99720.78;341990;28;1513;-70
2023/07/11 00:54:54;;;;;;;;;;;;;;;24.59;50.39;99725.31;343207;28;1296;-70
2023/07/11 00:55:08;;;;;;;;;;;;;;;24.59;50.11;99718.13;345485;28;1056;-72
2023/07/11 00:55:18;;;;;;;;;;;;;;;24.59;49.84;99718.13;346681;28;892;-71
2023/07/11 00:55:28;;;;;;;;;;;;;;;24.58;50.35;99718.28;348466;28;1261;-71
2023/07/11 00:55:39;;;;;;;;;;;;;;;24.59;50.35;99720.78;347551;28;805;-71
2023/07/11 00:55:49;;;;;;;;;;;;;;;24.59;50.52;99725.31;347338;28;1325;-71
2023/07/11 00:56:00;;;;;;;;;;;;;;;24.58;49.99;99719.09;346042;28;1219;-71
2023/07/11 00:56:11;;;;;;;;;;;;;;;24.58;50.29;99724.47;344814;28;821;-71
2023/07/11 00:56:24;;;;;;;;;;;;;;;24.58;50.44;99720.94;342303;28;2509;-71
2023/07/11 00:56:36;;;;;;;;;;;;;;;24.57;50.19;99725.44;337953;29;2842;-71
2023/07/11 00:56:46;;;;;;;;;;;;;;;24.57;50.06;99720.09;338084;29;5247;-71
2023/07/11 00:56:57;;;;;;;;;;;;;;;24.57;50.55;99722.78;336641;29;1232;-71
2023/07/11 00:57:07;;;;;;;;;;;;;;;24.58;50.33;99729.81;332816;29;3075;-71
2023/07/11 00:57:18;;;;;;;;;;;;;;;24.57;50.25;99720.09;334420;29;1311;-72
2023/07/11 00:57:28;;;;;;;;;;;;;;;24.58;50.62;99724.47;336606;29;1311;-72
2023/07/11 00:57:39;;;;;;;;;;;;;;;24.58;50.54;99727.13;332944;29;1274;-72
2023/07/11 00:57:49;;;;;;;;;;;;;;;24.58;50.54;99723.63;333472;29;927;-72
2023/07/11 00:58:00;;;;;;;;;;;;;;;24.58;50.18;99727.13;332761;29;1050;-72
2023/07/11 00:58:10;;;;;;;;;;;;;;;24.59;50.14;99727.97;332960;29;1127;-72
2023/07/11 00:58:20;;;;;;;;;;;;;;;24.59;50.30;99723.47;334929;29;1664;-72
2023/07/11 00:58:31;;;;;;;;;;;;;;;24.58;50.39;99720.94;334870;29;1830;-72
2023/07/11 00:58:41;;;;;;;;;;;;;;;24.57;50.58;99728.13;334254;29;736;-72
2023/07/11 00:58:51;;;;;;;;;;;;;;;24.58;50.19;99731.66;333471;29;1985;-72
2023/07/11 00:59:02;;;;;;;;;;;;;;;24.57;50.57;99725.44;330979;29;2058;-72
2023/07/11 00:59:15;;;;;;;;;;;;;;;24.58;50.37;99728.97;327848;30;1394;-72
2023/07/11 00:59:29;;;;;;;;;;;;;;;24.56;50.41;99729.13;330402;29;1308;-72
2023/07/11 00:59:39;;;;;;;;;;;;;;;24.57;49.97;99733.47;331747;29;823;-72
2023/07/11 00:59:51;;;;;;;;;;;;;;;24.56;50.31;99726.44;330066;29;1080;-72
2023/07/11 01:00:04;;;;;;;;;;;;;;;24.57;50.59;99732.66;329097;30;1306;-72
2023/07/11 01:00:16;;;;;;;;;;;;;;;24.57;50.45;99727.28;329038;29;1606;-71
2023/07/11 01:00:27;;;;;;;;;;;;;;;24.56;50.25;99731.81;327520;30;835;-71
2023/07/11 01:00:37;;;;;;;;;;;;;;;24.56;50.24;99726.44;328402;30;1894;-72
2023/07/11 01:00:47;;;;;;;;;;;;;;;24.56;50.32;99731.81;324864;30;2268;-72
2023/07/11 01:00:58;;;;;;;;;;;;;;;24.57;50.35;99733.47;322623;30;1115;-72
2023/07/11 01:01:08;;;;;;;;;;;;;;;24.57;50.29;99728.13;325047;30;2326;-72
2023/07/11 01:01:19;;;;;;;;;;;;;;;24.58;50.55;99731.66;323256;30;2464;-72
2023/07/11 01:01:29;;;;;;;;;;;;;;;24.57;50.41;99730.81;321608;30;2342;-72
2023/07/11 01:01:39;;;;;;;;;;;;;;;24.56;50.83;99731.81;319825;30;1392;-72
2023/07/11 01:01:52;;;;;;;;;;;;;;;24.56;50.73;99729.13;317539;31;1688;-72
2023/07/11 01:02:05;;;;;;;;;;;;;;;24.57;50.61;99736.16;316918;31;1463;-72
2023/07/11 01:02:18;;;;;;;;;;;;;;;24.57;50.56;99733.47;318061;30;2014;-72
2023/07/11 01:02:28;;;;;;;;;;;;;;;24.58;50.84;99737.00;317317;31;1370;-71
2023/07/11 01:02:38;;;;;;;;;;;;;;;24.58;50.33;99728.97;312796;31;1310;-72
2023/07/11 01:02:49;;;;;;;;;;;;;;;24.59;50.43;99736.00;314897;31;2394;-71
2023/07/11 01:02:59;;;;;;;;;;;;;;;24.58;50.63;99732.50;317985;30;2960;-71
2023/07/11 01:03:09;;;;;;;;;;;;;;;24.58;50.63;99729.81;323486;30;1167;-72
2023/07/11 01:03:20;;;;;;;;;;;;;;;24.58;50.61;99724.47;318047;30;3343;-72